sensor_id;sensor_type;location;lat;lon;timestamp;pressure;altitude;pressure_sealevel;temperature;humidity
3917;BME280;1973;50.518;7.318;2022-08-04T00:02:10;100593.63;;;23.09;100.00
3917;BME280;1973;50.518;7.318;2022-08-04T00:04:44;100599.84;;;23.06;100.00
3917;BME280;1973;50.518;7.318;2022-08-04T00:07:18;100603.22;;;23.03;100.00
3917;BME280;1973;50.518;7.318;2022-08-04T00:10:07;100601.34;;;22.98;100.00
3917;BME280;1973;50.518;7.318;2022-08-04T00:12:40;100601.13;;;22.95;100.00
3917;BME280;1973;50.518;7.318;2022-08-04T00:15:10;100600.06;;;22.91;100.00
3917;BME280;1973;50.518;7.318;2022-08-04T00:17:53;100600.63;;;22.88;100.00
3917;BME280;1973;50.518;7.318;2022-08-04T00:20:20;100600.19;;;22.80;100.00
3917;BME280;1973;50.518;7.318;2022-08-04T00:22:47;100594.66;;;22.75;100.00
3917;BME280;1973;50.518;7.318;2022-08-04T00:25:14;100603.13;;;22.70;100.00
3917;BME280;1973;50.518;7.318;2022-08-04T00:27:42;100602.03;;;22.66;100.00
3917;BME280;1973;50.518;7.318;2022-08-04T00:30:09;100598.75;;;22.59;100.00
3917;BME280;1973;50.518;7.318;2022-08-04T00:32:35;100599.66;;;22.55;100.00
3917;BME280;1973;50.518;7.318;2022-08-04T00:35:05;100605.03;;;22.51;100.00
3917;BME280;1973;50.518;7.318;2022-08-04T00:37:33;100601.16;;;22.47;100.00
3917;BME280;1973;50.518;7.318;2022-08-04T00:40:08;100601.47;;;22.46;100.00
3917;BME280;1973;50.518;7.318;2022-08-04T00:48:38;100606.28;;;22.40;100.00
3917;BME280;1973;50.518;7.318;2022-08-04T00:56:48;100607.44;;;22.39;100.00
3917;BME280;1973;50.518;7.318;2022-08-04T01:02:06;100607.50;;;22.34;100.00
3917;BME280;1973;50.518;7.318;2022-08-04T01:07:30;100605.81;;;22.33;100.00
3917;BME280;1973;50.518;7.318;2022-08-04T01:28:05;100595.16;;;22.06;100.00
3917;BME280;1973;50.518;7.318;2022-08-04T01:30:09;100589.06;;;21.99;100.00
3917;BME280;1973;50.518;7.318;2022-08-04T01:32:37;100586.59;;;21.98;100.00
3917;BME280;1973;50.518;7.318;2022-08-04T01:35:09;100583.22;;;21.96;100.00
3917;BME280;1973;50.518;7.318;2022-08-04T01:38:01;100581.59;;;21.90;100.00
3917;BME280;1973;50.518;7.318;2022-08-04T01:40:51;100578.91;;;21.79;100.00
3917;BME280;1973;50.518;7.318;2022-08-04T01:43:19;100584.53;;;21.74;100.00
3917;BME280;1973;50.518;7.318;2022-08-04T01:45:49;100580.66;;;21.70;100.00
3917;BME280;1973;50.518;7.318;2022-08-04T01:48:22;100577.06;;;21.65;100.00
3917;BME280;1973;50.518;7.318;2022-08-04T01:50:51;100581.59;;;21.61;100.00
3917;BME280;1973;50.518;7.318;2022-08-04T01:53:20;100583.00;;;21.58;100.00
3917;BME280;1973;50.518;7.318;2022-08-04T01:55:47;100574.66;;;21.53;100.00
3917;BME280;1973;50.518;7.318;2022-08-04T01:58:22;100572.13;;;21.52;100.00
3917;BME280;1973;50.518;7.318;2022-08-04T02:00:56;100579.16;;;21.49;100.00
3917;BME280;1973;50.518;7.318;2022-08-04T02:03:23;100582.56;;;21.46;100.00
3917;BME280;1973;50.518;7.318;2022-08-04T02:06:32;100586.22;;;21.47;100.00
3917;BME280;1973;50.518;7.318;2022-08-04T02:12:24;100580.91;;;21.40;100.00
3917;BME280;1973;50.518;7.318;2022-08-04T02:15:25;100578.19;;;21.35;100.00
3917;BME280;1973;50.518;7.318;2022-08-04T02:18:01;100580.16;;;21.29;100.00
3917;BME280;1973;50.518;7.318;2022-08-04T02:20:32;100579.06;;;21.25;100.00
3917;BME280;1973;50.518;7.318;2022-08-04T02:23:06;100575.19;;;21.21;100.00
3917;BME280;1973;50.518;7.318;2022-08-04T02:25:39;100566.53;;;21.18;100.00
3917;BME280;1973;50.518;7.318;2022-08-04T02:28:20;100582.22;;;21.14;100.00
3917;BME280;1973;50.518;7.318;2022-08-04T02:33:41;100578.34;;;21.10;100.00
3917;BME280;1973;50.518;7.318;2022-08-04T02:36:12;100577.25;;;21.06;100.00
3917;BME280;1973;50.518;7.318;2022-08-04T02:41:15;100573.88;;;21.04;100.00
3917;BME280;1973;50.518;7.318;2022-08-04T02:43:46;100571.06;;;21.04;100.00
3917;BME280;1973;50.518;7.318;2022-08-04T02:46:19;100568.28;;;21.04;100.00
3917;BME280;1973;50.518;7.318;2022-08-04T02:48:48;100566.31;;;21.04;100.00
3917;BME280;1973;50.518;7.318;2022-08-04T02:51:16;100572.19;;;21.03;100.00
3917;BME280;1973;50.518;7.318;2022-08-04T02:53:46;100575.00;;;21.03;100.00
3917;BME280;1973;50.518;7.318;2022-08-04T02:56:18;100573.88;;;21.04;100.00
3917;BME280;1973;50.518;7.318;2022-08-04T02:58:50;100568.28;;;21.04;100.00
3917;BME280;1973;50.518;7.318;2022-08-04T03:01:17;100563.81;;;21.03;100.00
3917;BME280;1973;50.518;7.318;2022-08-04T03:04:00;100566.59;;;21.03;100.00
3917;BME280;1973;50.518;7.318;2022-08-04T03:30:17;100551.59;;;20.88;100.00
3917;BME280;1973;50.518;7.318;2022-08-04T03:32:38;100559.72;;;20.85;100.00
3917;BME280;1973;50.518;7.318;2022-08-04T03:35:36;100564.53;;;20.79;100.00
3917;BME280;1973;50.518;7.318;2022-08-04T03:43:37;100561.50;;;20.66;100.00
3917;BME280;1973;50.518;7.318;2022-08-04T03:46:40;100556.81;;;20.61;100.00
3917;BME280;1973;50.518;7.318;2022-08-04T03:49:40;100559.09;;;20.54;100.00
3917;BME280;1973;50.518;7.318;2022-08-04T04:17:42;100559.16;;;20.39;100.00
3917;BME280;1973;50.518;7.318;2022-08-04T04:23:14;100561.09;;;20.38;100.00
3917;BME280;1973;50.518;7.318;2022-08-04T04:26:03;100561.97;;;20.34;100.00
3917;BME280;1973;50.518;7.318;2022-08-04T04:40:27;100568.66;;;20.33;100.00
3917;BME280;1973;50.518;7.318;2022-08-04T04:46:05;100565.31;;;20.36;100.00
3917;BME280;1973;50.518;7.318;2022-08-04T04:48:48;100564.19;;;20.37;100.00
3917;BME280;1973;50.518;7.318;2022-08-04T04:51:25;100565.28;;;20.41;100.00
3917;BME280;1973;50.518;7.318;2022-08-04T04:54:13;100573.09;;;20.44;100.00
3917;BME280;1973;50.518;7.318;2022-08-04T04:57:02;100568.06;;;20.46;100.00
3917;BME280;1973;50.518;7.318;2022-08-04T04:59:33;100569.44;;;20.49;100.00
3917;BME280;1973;50.518;7.318;2022-08-04T05:02:18;100568.59;;;20.53;100.00
3917;BME280;1973;50.518;7.318;2022-08-04T05:14:40;100573.59;;;20.56;100.00
3917;BME280;1973;50.518;7.318;2022-08-04T05:17:51;100576.41;;;20.56;100.00
3917;BME280;1973;50.518;7.318;2022-08-04T05:20:22;100577.25;;;20.57;100.00
3917;BME280;1973;50.518;7.318;2022-08-04T05:22:59;100582.56;;;20.58;100.00
3917;BME280;1973;50.518;7.318;2022-08-04T05:25:34;100585.63;;;20.62;100.00
3917;BME280;1973;50.518;7.318;2022-08-04T05:28:08;100580.56;;;20.64;100.00
3917;BME280;1973;50.518;7.318;2022-08-04T05:30:38;100587.78;;;20.70;100.00
3917;BME280;1973;50.518;7.318;2022-08-04T05:33:16;100579.66;;;20.73;100.00
3917;BME280;1973;50.518;7.318;2022-08-04T05:35:48;100579.63;;;20.78;100.00
3917;BME280;1973;50.518;7.318;2022-08-04T05:38:37;100580.75;;;20.82;100.00
3917;BME280;1973;50.518;7.318;2022-08-04T05:43:32;100575.63;;;20.95;100.00
3917;BME280;1973;50.518;7.318;2022-08-04T05:46:00;100578.94;;;21.02;100.00
3917;BME280;1973;50.518;7.318;2022-08-04T05:48:29;100569.94;;;21.10;100.00
3917;BME280;1973;50.518;7.318;2022-08-04T05:50:57;100578.28;;;21.20;100.00
3917;BME280;1973;50.518;7.318;2022-08-04T05:53:27;100579.03;;;21.30;100.00
3917;BME280;1973;50.518;7.318;2022-08-04T05:55:55;100580.91;;;21.40;100.00
3917;BME280;1973;50.518;7.318;2022-08-04T05:58:27;100573.56;;;21.49;100.00
3917;BME280;1973;50.518;7.318;2022-08-04T06:00:54;100566.75;;;21.60;100.00
3917;BME280;1973;50.518;7.318;2022-08-04T06:03:22;100578.41;;;21.72;100.00
3917;BME280;1973;50.518;7.318;2022-08-04T06:05:50;100577.19;;;21.83;100.00
3917;BME280;1973;50.518;7.318;2022-08-04T06:08:17;100578.78;;;21.95;100.00
3917;BME280;1973;50.518;7.318;2022-08-04T06:10:45;100575.84;;;22.05;100.00
3917;BME280;1973;50.518;7.318;2022-08-04T06:13:16;100570.13;;;22.15;100.00
3917;BME280;1973;50.518;7.318;2022-08-04T06:16:05;100570.31;;;22.23;100.00
3917;BME280;1973;50.518;7.318;2022-08-04T06:18:44;100571.31;;;22.32;100.00
3917;BME280;1973;50.518;7.318;2022-08-04T06:21:36;100574.81;;;22.43;100.00
3917;BME280;1973;50.518;7.318;2022-08-04T06:24:05;100569.09;;;22.53;100.00
3917;BME280;1973;50.518;7.318;2022-08-04T06:26:37;100574.84;;;22.62;100.00
3917;BME280;1973;50.518;7.318;2022-08-04T06:29:03;100564.38;;;22.72;100.00
3917;BME280;1973;50.518;7.318;2022-08-04T06:31:31;100563.91;;;22.84;100.00
3917;BME280;1973;50.518;7.318;2022-08-04T06:34:29;100565.13;;;22.97;100.00
3917;BME280;1973;50.518;7.318;2022-08-04T06:36:58;100567.16;;;23.10;100.00
3917;BME280;1973;50.518;7.318;2022-08-04T06:39:26;100570.06;;;23.23;100.00
3917;BME280;1973;50.518;7.318;2022-08-04T06:41:54;100571.78;;;23.38;100.00
3917;BME280;1973;50.518;7.318;2022-08-04T06:44:41;100570.41;;;23.54;100.00
3917;BME280;1973;50.518;7.318;2022-08-04T06:47:09;100568.50;;;23.68;100.00
3917;BME280;1973;50.518;7.318;2022-08-04T06:49:40;100571.00;;;23.84;100.00
3917;BME280;1973;50.518;7.318;2022-08-04T06:52:29;100570.72;;;23.99;100.00
3917;BME280;1973;50.518;7.318;2022-08-04T06:54:57;100569.91;;;24.12;100.00
3917;BME280;1973;50.518;7.318;2022-08-04T06:57:26;100565.16;;;24.26;100.00
3917;BME280;1973;50.518;7.318;2022-08-04T06:59:58;100549.09;;;24.40;100.00
3917;BME280;1973;50.518;7.318;2022-08-04T07:02:28;100562.66;;;24.52;100.00
3917;BME280;1973;50.518;7.318;2022-08-04T07:04:56;100553.66;;;24.63;100.00
3917;BME280;1973;50.518;7.318;2022-08-04T07:07:23;100560.75;;;24.75;99.84
3917;BME280;1973;50.518;7.318;2022-08-04T07:10:02;100552.28;;;24.88;98.86
3917;BME280;1973;50.518;7.318;2022-08-04T07:12:30;100546.94;;;25.00;97.40
3917;BME280;1973;50.518;7.318;2022-08-04T07:14:58;100544.06;;;25.14;95.81
3917;BME280;1973;50.518;7.318;2022-08-04T07:17:25;100549.13;;;25.26;92.98
3917;BME280;1973;50.518;7.318;2022-08-04T07:20:00;100544.06;;;25.36;90.79
3917;BME280;1973;50.518;7.318;2022-08-04T07:22:27;100539.84;;;25.47;89.67
3917;BME280;1973;50.518;7.318;2022-08-04T07:24:55;100551.41;;;25.59;89.38
3917;BME280;1973;50.518;7.318;2022-08-04T07:27:23;100542.69;;;25.70;88.18
3917;BME280;1973;50.518;7.318;2022-08-04T07:30:10;100546.41;;;25.79;86.93
3917;BME280;1973;50.518;7.318;2022-08-04T07:32:37;100547.59;;;25.86;85.56
3917;BME280;1973;50.518;7.318;2022-08-04T07:35:05;100543.66;;;25.96;84.51
3917;BME280;1973;50.518;7.318;2022-08-04T07:37:32;100535.56;;;26.03;83.05
3917;BME280;1973;50.518;7.318;2022-08-04T07:40:06;100539.25;;;26.12;82.74
3917;BME280;1973;50.518;7.318;2022-08-04T07:42:33;100536.16;;;26.22;82.31
3917;BME280;1973;50.518;7.318;2022-08-04T07:45:00;100534.19;;;26.31;80.07
3917;BME280;1973;50.518;7.318;2022-08-04T07:47:26;100537.41;;;26.38;78.09
3917;BME280;1973;50.518;7.318;2022-08-04T07:49:54;100526.44;;;26.45;77.50
3917;BME280;1973;50.518;7.318;2022-08-04T07:52:24;100533.44;;;26.56;75.86
3917;BME280;1973;50.518;7.318;2022-08-04T07:54:53;100531.97;;;26.68;75.78
3917;BME280;1973;50.518;7.318;2022-08-04T07:57:19;100524.19;;;26.82;74.46
3917;BME280;1973;50.518;7.318;2022-08-04T08:00:07;100531.22;;;26.93;72.68
3917;BME280;1973;50.518;7.318;2022-08-04T08:02:34;100525.88;;;27.00;71.26
3917;BME280;1973;50.518;7.318;2022-08-04T08:05:01;100526.06;;;27.12;71.33
3917;BME280;1973;50.518;7.318;2022-08-04T08:07:28;100525.72;;;27.22;68.54
3917;BME280;1973;50.518;7.318;2022-08-04T08:09:55;100522.53;;;27.32;68.45
3917;BME280;1973;50.518;7.318;2022-08-04T08:12:21;100525.03;;;27.42;67.30
3917;BME280;1973;50.518;7.318;2022-08-04T08:15:09;100509.38;;;27.53;66.75
3917;BME280;1973;50.518;7.318;2022-08-04T08:17:41;100513.53;;;27.65;64.11
3917;BME280;1973;50.518;7.318;2022-08-04T08:20:25;100516.50;;;27.77;62.05
3917;BME280;1973;50.518;7.318;2022-08-04T08:22:55;100511.66;;;27.86;61.01
3917;BME280;1973;50.518;7.318;2022-08-04T08:25:22;100517.09;;;27.99;60.69
3917;BME280;1973;50.518;7.318;2022-08-04T08:27:48;100507.22;;;28.14;59.30
3917;BME280;1973;50.518;7.318;2022-08-04T08:30:23;100504.16;;;28.28;58.75
3917;BME280;1973;50.518;7.318;2022-08-04T08:32:49;100509.59;;;28.41;57.71
3917;BME280;1973;50.518;7.318;2022-08-04T08:35:16;100502.38;;;28.52;56.01
3917;BME280;1973;50.518;7.318;2022-08-04T08:37:53;100501.75;;;28.68;53.46
3917;BME280;1973;50.518;7.318;2022-08-04T08:40:57;100500.69;;;28.81;52.55
3917;BME280;1973;50.518;7.318;2022-08-04T08:46:54;100501.06;;;29.12;51.73
3917;BME280;1973;50.518;7.318;2022-08-04T08:55:39;100487.50;;;29.38;50.65
3917;BME280;1973;50.518;7.318;2022-08-04T08:58:33;100498.00;;;29.59;50.62
3917;BME280;1973;50.518;7.318;2022-08-04T09:01:09;100488.19;;;29.68;49.20
3917;BME280;1973;50.518;7.318;2022-08-04T09:12:13;100471.25;;;30.29;46.73
3917;BME280;1973;50.518;7.318;2022-08-04T09:15:02;100468.66;;;30.48;46.55
3917;BME280;1973;50.518;7.318;2022-08-04T09:17:36;100462.59;;;30.62;46.28
3917;BME280;1973;50.518;7.318;2022-08-04T09:20:59;100461.59;;;30.82;46.24
3917;BME280;1973;50.518;7.318;2022-08-04T09:31:43;100457.88;;;31.33;43.52
3917;BME280;1973;50.518;7.318;2022-08-04T09:34:40;100449.81;;;31.51;44.11
3917;BME280;1973;50.518;7.318;2022-08-04T09:42:44;100444.66;;;32.00;41.33
3917;BME280;1973;50.518;7.318;2022-08-04T09:45:34;100445.22;;;32.21;41.21
3917;BME280;1973;50.518;7.318;2022-08-04T09:48:13;100447.13;;;32.33;41.28
3917;BME280;1973;50.518;7.318;2022-08-04T09:50:41;100441.00;;;32.50;41.32
3917;BME280;1973;50.518;7.318;2022-08-04T09:58:45;100441.63;;;32.94;37.72
3917;BME280;1973;50.518;7.318;2022-08-04T10:01:18;100442.56;;;33.17;38.57
3917;BME280;1973;50.518;7.318;2022-08-04T10:03:52;100436.97;;;33.44;38.43
3917;BME280;1973;50.518;7.318;2022-08-04T10:06:44;100436.41;;;33.57;36.55
3917;BME280;1973;50.518;7.318;2022-08-04T10:17:38;100435.13;;;33.55;35.59
3917;BME280;1973;50.518;7.318;2022-08-04T10:20:47;100428.53;;;33.51;36.77
3917;BME280;1973;50.518;7.318;2022-08-04T10:23:37;100425.97;;;33.46;36.65
3917;BME280;1973;50.518;7.318;2022-08-04T10:29:18;100426.91;;;33.31;37.36
3917;BME280;1973;50.518;7.318;2022-08-04T10:31:56;100432.16;;;33.28;37.42
3917;BME280;1973;50.518;7.318;2022-08-04T10:34:27;100431.69;;;33.46;37.82
3917;BME280;1973;50.518;7.318;2022-08-04T10:39:46;100413.94;;;34.01;36.40
3917;BME280;1973;50.518;7.318;2022-08-04T10:42:39;100407.47;;;34.31;36.37
3917;BME280;1973;50.518;7.318;2022-08-04T10:45:22;100413.88;;;34.47;34.51
3917;BME280;1973;50.518;7.318;2022-08-04T10:48:05;100411.59;;;34.89;34.54
3917;BME280;1973;50.518;7.318;2022-08-04T10:50:39;100397.56;;;35.10;33.68
3917;BME280;1973;50.518;7.318;2022-08-04T10:53:17;100394.69;;;35.44;32.17
3917;BME280;1973;50.518;7.318;2022-08-04T10:55:52;100400.75;;;35.76;32.14
3917;BME280;1973;50.518;7.318;2022-08-04T10:58:41;100386.88;;;35.81;31.18
3917;BME280;1973;50.518;7.318;2022-08-04T11:01:20;100401.81;;;36.04;30.88
3917;BME280;1973;50.518;7.318;2022-08-04T11:04:13;100400.47;;;36.39;30.93
3917;BME280;1973;50.518;7.318;2022-08-04T11:06:54;100406.69;;;36.55;30.56
3917;BME280;1973;50.518;7.318;2022-08-04T11:09:21;100390.88;;;36.82;30.26
3917;BME280;1973;50.518;7.318;2022-08-04T11:14:55;100375.13;;;37.59;28.73
3917;BME280;1973;50.518;7.318;2022-08-04T11:17:27;100373.53;;;37.72;27.78
3917;BME280;1973;50.518;7.318;2022-08-04T11:23:03;100382.97;;;37.90;27.24
3917;BME280;1973;50.518;7.318;2022-08-04T11:25:54;100371.09;;;37.99;25.50
3917;BME280;1973;50.518;7.318;2022-08-04T11:28:32;100368.19;;;38.17;26.76
3917;BME280;1973;50.518;7.318;2022-08-04T11:31:05;100379.66;;;38.45;26.21
3917;BME280;1973;50.518;7.318;2022-08-04T11:39:37;100375.56;;;37.89;24.98
3917;BME280;1973;50.518;7.318;2022-08-04T11:42:22;100383.41;;;38.17;25.43
3917;BME280;1973;50.518;7.318;2022-08-04T11:45:03;100377.63;;;37.99;24.71
3917;BME280;1973;50.518;7.318;2022-08-04T11:47:57;100379.72;;;37.99;24.61
3917;BME280;1973;50.518;7.318;2022-08-04T11:50:42;100382.56;;;37.95;24.96
3917;BME280;1973;50.518;7.318;2022-08-04T11:53:14;100383.78;;;37.87;24.89
3917;BME280;1973;50.518;7.318;2022-08-04T11:55:44;100384.59;;;37.67;24.58
3917;BME280;1973;50.518;7.318;2022-08-04T11:58:34;100384.56;;;37.49;24.75
3917;BME280;1973;50.518;7.318;2022-08-04T12:07:04;100394.31;;;37.13;23.92
3917;BME280;1973;50.518;7.318;2022-08-04T12:12:42;100393.38;;;36.87;24.47
3917;BME280;1973;50.518;7.318;2022-08-04T12:15:29;100382.66;;;36.77;24.23
3917;BME280;1973;50.518;7.318;2022-08-04T12:18:12;100399.00;;;36.66;24.47
3917;BME280;1973;50.518;7.318;2022-08-04T12:20:47;100393.16;;;36.52;24.66
3917;BME280;1973;50.518;7.318;2022-08-04T12:23:19;100402.03;;;36.33;24.44
3917;BME280;1973;50.518;7.318;2022-08-04T12:25:52;100402.38;;;36.17;24.91
3917;BME280;1973;50.518;7.318;2022-08-04T12:28:40;100384.63;;;36.04;24.45
3917;BME280;1973;50.518;7.318;2022-08-04T12:31:35;100392.31;;;35.93;24.50
3917;BME280;1973;50.518;7.318;2022-08-04T12:36:55;100385.16;;;35.70;24.20
3917;BME280;1973;50.518;7.318;2022-08-04T12:39:25;100393.28;;;35.64;24.91
3917;BME280;1973;50.518;7.318;2022-08-04T12:44:37;100389.03;;;35.51;24.64
3917;BME280;1973;50.518;7.318;2022-08-04T12:47:09;100382.44;;;35.47;24.46
3917;BME280;1973;50.518;7.318;2022-08-04T12:49:56;100378.72;;;35.43;25.08
3917;BME280;1973;50.518;7.318;2022-08-04T12:52:29;100381.59;;;35.43;25.04
3917;BME280;1973;50.518;7.318;2022-08-04T12:55:17;100375.44;;;35.44;25.14
3917;BME280;1973;50.518;7.318;2022-08-04T12:57:46;100374.28;;;35.49;25.36
3917;BME280;1973;50.518;7.318;2022-08-04T13:00:25;100372.25;;;35.53;25.13
3917;BME280;1973;50.518;7.318;2022-08-04T13:03:03;100365.72;;;35.52;24.87
3917;BME280;1973;50.518;7.318;2022-08-04T13:05:37;100374.75;;;35.54;25.14
3917;BME280;1973;50.518;7.318;2022-08-04T13:08:05;100378.44;;;35.55;25.67
3917;BME280;1973;50.518;7.318;2022-08-04T13:10:37;100371.84;;;35.51;25.22
3917;BME280;1973;50.518;7.318;2022-08-04T13:13:04;100377.56;;;35.47;25.51
3917;BME280;1973;50.518;7.318;2022-08-04T13:15:36;100368.50;;;35.45;25.60
3917;BME280;1973;50.518;7.318;2022-08-04T13:18:22;100370.91;;;35.40;25.88
3917;BME280;1973;50.518;7.318;2022-08-04T13:21:06;100369.63;;;35.34;26.83
3917;BME280;1973;50.518;7.318;2022-08-04T13:23:49;100382.22;;;35.26;27.80
3917;BME280;1973;50.518;7.318;2022-08-04T13:26:36;100385.28;;;35.10;28.99
3917;BME280;1973;50.518;7.318;2022-08-04T13:29:19;100397.38;;;34.96;29.55
3917;BME280;1973;50.518;7.318;2022-08-04T13:32:08;100389.84;;;34.81;30.02
3917;BME280;1973;50.518;7.318;2022-08-04T13:34:35;100392.59;;;34.74;30.63
3917;BME280;1973;50.518;7.318;2022-08-04T13:37:06;100388.91;;;34.70;30.83
3917;BME280;1973;50.518;7.318;2022-08-04T13:39:34;100386.84;;;34.70;30.96
3917;BME280;1973;50.518;7.318;2022-08-04T13:42:04;100391.06;;;34.80;31.82
3917;BME280;1973;50.518;7.318;2022-08-04T13:44:36;100398.91;;;34.87;31.90
3917;BME280;1973;50.518;7.318;2022-08-04T13:47:13;100401.03;;;34.93;31.65
3917;BME280;1973;50.518;7.318;2022-08-04T13:50:12;100399.53;;;35.03;31.88
3917;BME280;1973;50.518;7.318;2022-08-04T13:52:42;100392.59;;;35.07;31.56
3917;BME280;1973;50.518;7.318;2022-08-04T13:57:58;100403.84;;;35.60;31.34
3917;BME280;1973;50.518;7.318;2022-08-04T14:00:38;100382.16;;;36.03;31.73
3917;BME280;1973;50.518;7.318;2022-08-04T14:03:06;100401.56;;;36.20;31.92
3917;BME280;1973;50.518;7.318;2022-08-04T14:06:12;100398.03;;;36.48;32.18
3917;BME280;1973;50.518;7.318;2022-08-04T14:08:49;100401.34;;;36.50;32.40
3917;BME280;1973;50.518;7.318;2022-08-04T14:11:19;100395.09;;;36.34;32.79
3917;BME280;1973;50.518;7.318;2022-08-04T14:14:27;100410.88;;;36.06;32.72
3917;BME280;1973;50.518;7.318;2022-08-04T14:17:06;100400.44;;;35.84;33.18
3917;BME280;1973;50.518;7.318;2022-08-04T14:25:12;100391.41;;;36.33;32.41
3917;BME280;1973;50.518;7.318;2022-08-04T14:27:53;100383.97;;;36.22;32.08
3917;BME280;1973;50.518;7.318;2022-08-04T14:30:23;100389.63;;;36.15;32.18
3917;BME280;1973;50.518;7.318;2022-08-04T14:33:03;100396.53;;;36.06;32.90
3917;BME280;1973;50.518;7.318;2022-08-04T14:35:57;100405.69;;;35.79;32.87
3917;BME280;1973;50.518;7.318;2022-08-04T14:38:53;100387.44;;;35.57;32.67
3917;BME280;1973;50.518;7.318;2022-08-04T14:41:28;100390.03;;;35.29;33.46
3917;BME280;1973;50.518;7.318;2022-08-04T14:43:57;100399.31;;;35.18;33.46
3917;BME280;1973;50.518;7.318;2022-08-04T14:46:25;100389.44;;;35.12;33.16
3917;BME280;1973;50.518;7.318;2022-08-04T14:49:10;100405.44;;;35.17;33.62
3917;BME280;1973;50.518;7.318;2022-08-04T14:51:40;100389.50;;;35.20;33.35
3917;BME280;1973;50.518;7.318;2022-08-04T14:54:09;100388.25;;;35.54;32.99
3917;BME280;1973;50.518;7.318;2022-08-04T14:56:51;100391.03;;;35.87;32.62
3917;BME280;1973;50.518;7.318;2022-08-04T14:59:18;100397.91;;;36.27;32.30
3917;BME280;1973;50.518;7.318;2022-08-04T15:01:45;100393.22;;;36.59;31.80
3917;BME280;1973;50.518;7.318;2022-08-04T15:04:28;100389.63;;;36.76;31.35
3917;BME280;1973;50.518;7.318;2022-08-04T15:06:56;100382.00;;;37.09;31.12
3917;BME280;1973;50.518;7.318;2022-08-04T15:09:24;100378.41;;;37.40;30.12
3917;BME280;1973;50.518;7.318;2022-08-04T15:11:50;100376.41;;;37.65;30.07
3917;BME280;1973;50.518;7.318;2022-08-04T15:14:17;100380.50;;;37.92;29.52
3917;BME280;1973;50.518;7.318;2022-08-04T15:17:04;100370.63;;;38.22;29.32
3917;BME280;1973;50.518;7.318;2022-08-04T15:19:52;100367.25;;;38.62;28.92
3917;BME280;1973;50.518;7.318;2022-08-04T15:22:21;100356.00;;;39.00;28.74
3917;BME280;1973;50.518;7.318;2022-08-04T15:24:47;100362.47;;;39.28;28.08
3917;BME280;1973;50.518;7.318;2022-08-04T15:27:23;100352.81;;;39.56;27.86
3917;BME280;1973;50.518;7.318;2022-08-04T15:29:55;100343.63;;;39.75;27.40
3917;BME280;1973;50.518;7.318;2022-08-04T15:32:31;100339.75;;;39.93;27.02
3917;BME280;1973;50.518;7.318;2022-08-04T15:35:25;100356.47;;;40.12;26.88
3917;BME280;1973;50.518;7.318;2022-08-04T15:38:05;100346.34;;;40.34;27.15
3917;BME280;1973;50.518;7.318;2022-08-04T15:40:53;100346.19;;;40.48;26.09
3917;BME280;1973;50.518;7.318;2022-08-04T15:46:06;100336.81;;;40.74;26.24
3917;BME280;1973;50.518;7.318;2022-08-04T15:48:52;100338.06;;;40.73;25.99
3917;BME280;1973;50.518;7.318;2022-08-04T15:51:25;100344.09;;;40.52;26.07
3917;BME280;1973;50.518;7.318;2022-08-04T15:54:19;100332.81;;;40.27;26.25
3917;BME280;1973;50.518;7.318;2022-08-04T15:56:51;100332.66;;;40.01;26.60
3917;BME280;1973;50.518;7.318;2022-08-04T15:59:57;100327.03;;;39.86;26.30
3917;BME280;1973;50.518;7.318;2022-08-04T16:08:00;100352.59;;;39.22;27.06
3917;BME280;1973;50.518;7.318;2022-08-04T16:10:34;100349.03;;;38.97;27.57
3917;BME280;1973;50.518;7.318;2022-08-04T16:13:07;100354.81;;;38.93;27.72
3917;BME280;1973;50.518;7.318;2022-08-04T16:15:47;100361.50;;;38.62;27.76
3917;BME280;1973;50.518;7.318;2022-08-04T16:20:57;100371.09;;;37.99;28.66
3917;BME280;1973;50.518;7.318;2022-08-04T16:29:30;100376.81;;;36.59;30.19
3917;BME280;1973;50.518;7.318;2022-08-04T16:32:18;100398.31;;;36.22;30.94
3917;BME280;1973;50.518;7.318;2022-08-04T16:34:48;100396.09;;;36.04;31.14
3917;BME280;1973;50.518;7.318;2022-08-04T16:37:35;100401.19;;;35.78;32.25
3917;BME280;1973;50.518;7.318;2022-08-04T16:43:12;100395.31;;;35.27;33.86
3917;BME280;1973;50.518;7.318;2022-08-04T16:45:53;100403.63;;;35.05;34.60
3917;BME280;1973;50.518;7.318;2022-08-04T16:51:19;100406.28;;;34.32;36.28
3917;BME280;1973;50.518;7.318;2022-08-04T16:54:02;100382.69;;;33.89;36.82
3917;BME280;1973;50.518;7.318;2022-08-04T16:56:32;100439.31;;;33.61;37.37
3917;BME280;1973;50.518;7.318;2022-08-04T16:59:11;100424.31;;;33.45;38.84
3917;BME280;1973;50.518;7.318;2022-08-04T17:01:49;100438.03;;;33.16;40.21
3917;BME280;1973;50.518;7.318;2022-08-04T17:04:16;100434.41;;;32.81;40.77
3917;BME280;1973;50.518;7.318;2022-08-04T17:06:44;100425.34;;;32.60;41.63
3917;BME280;1973;50.518;7.318;2022-08-04T17:09:15;100422.56;;;32.28;43.56
3917;BME280;1973;50.518;7.318;2022-08-04T17:11:43;100429.03;;;32.10;44.32
3917;BME280;1973;50.518;7.318;2022-08-04T17:14:10;100432.34;;;31.96;45.08
3917;BME280;1973;50.518;7.318;2022-08-04T17:16:40;100438.78;;;31.77;46.60
3917;BME280;1973;50.518;7.318;2022-08-04T17:19:07;100429.75;;;31.60;47.25
3917;BME280;1973;50.518;7.318;2022-08-04T17:21:53;100442.59;;;31.54;47.93
3917;BME280;1973;50.518;7.318;2022-08-04T17:24:27;100429.13;;;31.38;49.07
3917;BME280;1973;50.518;7.318;2022-08-04T17:26:56;100429.19;;;31.26;49.66
3917;BME280;1973;50.518;7.318;2022-08-04T17:29:26;100430.22;;;31.18;51.32
3917;BME280;1973;50.518;7.318;2022-08-04T17:32:15;100431.81;;;31.04;50.99
3917;BME280;1973;50.518;7.318;2022-08-04T17:34:46;100430.50;;;31.01;52.47
3917;BME280;1973;50.518;7.318;2022-08-04T17:37:14;100432.38;;;30.97;51.92
3917;BME280;1973;50.518;7.318;2022-08-04T17:40:13;100434.56;;;30.88;54.66
3917;BME280;1973;50.518;7.318;2022-08-04T17:43:03;100435.19;;;30.81;55.76
3917;BME280;1973;50.518;7.318;2022-08-04T17:46:21;100436.03;;;30.70;56.92
3917;BME280;1973;50.518;7.318;2022-08-04T17:49:08;100441.75;;;30.58;57.71
3917;BME280;1973;50.518;7.318;2022-08-04T17:51:49;100441.19;;;30.52;57.77
3917;BME280;1973;50.518;7.318;2022-08-04T17:54:35;100430.16;;;30.38;56.95